createdAt,value
2018-11-07T00:00:08.441Z,18.92
2018-11-07T00:01:08.136Z,18.95
2018-11-07T00:02:08.106Z,18.95
2018-11-07T00:03:08.390Z,18.92
2018-11-07T00:04:08.271Z,18.94
2018-11-07T00:05:08.328Z,18.9
2018-11-07T00:06:08.129Z,18.91
2018-11-07T00:07:08.707Z,18.92
2018-11-07T00:08:09.826Z,18.94
2018-11-07T00:09:08.199Z,18.92
2018-11-07T00:10:08.306Z,18.95
2018-11-07T00:11:08.261Z,18.94
2018-11-07T00:12:08.301Z,18.91
2018-11-07T00:13:08.076Z,18.9
2018-11-07T00:14:08.852Z,18.94
2018-11-07T00:15:08.415Z,18.91
2018-11-07T00:16:08.551Z,18.92
2018-11-07T00:17:08.755Z,18.92
2018-11-07T00:18:08.573Z,18.94
2018-11-07T00:19:08.528Z,18.91
2018-11-07T00:20:08.090Z,18.88
2018-11-07T00:21:08.240Z,18.91
2018-11-07T00:22:08.133Z,18.92
2018-11-07T00:23:08.302Z,18.91
2018-11-07T00:24:08.292Z,18.91
2018-11-07T00:25:08.366Z,18.94
2018-11-07T00:26:08.741Z,18.91
2018-11-07T00:27:08.182Z,18.92
2018-11-07T00:28:08.314Z,18.92
2018-11-07T00:29:08.065Z,18.94
2018-11-07T00:30:09.526Z,18.91
2018-11-07T00:31:08.524Z,18.91
2018-11-07T00:32:08.262Z,18.92
2018-11-07T00:33:08.391Z,18.88
2018-11-07T00:34:08.076Z,18.91
2018-11-07T00:35:09.760Z,18.91
2018-11-07T00:36:09.048Z,18.91
2018-11-07T00:37:08.195Z,18.9
2018-11-07T00:38:08.766Z,18.87
2018-11-07T00:39:08.492Z,18.87
2018-11-07T00:40:08.228Z,18.87
2018-11-07T00:41:09.003Z,18.88
2018-11-07T00:42:08.715Z,18.88
2018-11-07T00:43:08.309Z,18.88
2018-11-07T00:44:08.139Z,18.88
2018-11-07T00:45:08.646Z,18.91
2018-11-07T00:46:08.165Z,18.88
2018-11-07T00:47:08.323Z,18.91
2018-11-07T00:48:08.125Z,18.88
2018-11-07T00:49:08.734Z,18.87
2018-11-07T00:50:08.090Z,18.88
2018-11-07T00:51:08.167Z,18.87
2018-11-07T00:52:08.774Z,18.85
2018-11-07T00:53:08.203Z,18.88
2018-11-07T00:54:08.201Z,18.9
2018-11-07T00:55:08.058Z,18.87
2018-11-07T00:56:08.477Z,18.87
2018-11-07T00:57:08.414Z,18.85
2018-11-07T00:58:09.455Z,18.87
2018-11-07T00:59:08.508Z,18.87
2018-11-07T01:00:08.402Z,18.87
2018-11-07T01:01:08.202Z,18.88
2018-11-07T01:02:08.353Z,18.88
2018-11-07T01:03:08.188Z,18.87
2018-11-07T01:04:08.241Z,18.87
2018-11-07T01:05:08.163Z,18.87
2018-11-07T01:06:08.301Z,18.88
2018-11-07T01:07:08.318Z,18.87
2018-11-07T01:08:08.151Z,18.88
2018-11-07T01:09:08.476Z,18.85
2018-11-07T01:10:08.160Z,18.85
2018-11-07T01:11:08.349Z,18.84
2018-11-07T01:12:08.379Z,18.87
2018-11-07T01:13:08.213Z,18.87
2018-11-07T01:14:08.057Z,18.87
2018-11-07T01:15:08.402Z,18.88
2018-11-07T01:16:08.324Z,18.85
2018-11-07T01:17:08.151Z,18.87
2018-11-07T01:18:08.211Z,18.83
2018-11-07T01:19:08.363Z,18.88
2018-11-07T01:20:08.209Z,18.88
2018-11-07T01:21:08.073Z,18.85
2018-11-07T01:22:08.342Z,18.87
2018-11-07T01:23:08.292Z,18.9
2018-11-07T01:24:08.118Z,18.9
2018-11-07T01:25:08.527Z,18.88
2018-11-07T01:26:08.046Z,18.87
2018-11-07T01:27:08.178Z,18.85
2018-11-07T01:28:08.598Z,18.88
2018-11-07T01:29:08.123Z,18.87
2018-11-07T01:30:08.322Z,18.85
2018-11-07T01:31:08.105Z,18.83
2018-11-07T01:32:08.227Z,18.84
2018-11-07T01:33:08.070Z,18.84
2018-11-07T01:34:08.241Z,18.84
2018-11-07T01:35:08.403Z,18.84
2018-11-07T01:36:08.149Z,18.85
2018-11-07T01:37:08.267Z,18.84
2018-11-07T01:38:08.299Z,18.83
2018-11-07T01:39:08.496Z,18.83
2018-11-07T01:40:08.074Z,18.85
2018-11-07T01:41:08.573Z,18.84
2018-11-07T01:42:09.202Z,18.83
2018-11-07T01:43:08.570Z,18.85
2018-11-07T01:44:08.327Z,18.81
2018-11-07T01:45:08.257Z,18.83
2018-11-07T01:46:08.320Z,18.83
2018-11-07T01:47:08.099Z,18.83
2018-11-07T01:48:08.215Z,18.83
2018-11-07T01:49:08.263Z,18.83
2018-11-07T01:50:08.500Z,18.84
2018-11-07T01:51:08.368Z,18.84
2018-11-07T01:52:08.171Z,18.81
2018-11-07T01:53:08.498Z,18.84
2018-11-07T01:54:08.523Z,18.84
2018-11-07T01:55:08.257Z,18.81
2018-11-07T01:56:08.287Z,18.84
2018-11-07T01:57:08.209Z,18.83
2018-11-07T01:58:08.664Z,18.84
2018-11-07T01:59:08.456Z,18.81
2018-11-07T02:00:08.179Z,18.84
2018-11-07T02:01:08.238Z,18.8
2018-11-07T02:02:08.354Z,18.8
2018-11-07T02:03:08.291Z,18.81
2018-11-07T02:04:08.707Z,18.8
2018-11-07T02:05:08.417Z,18.75
2018-11-07T02:06:08.094Z,18.81
2018-11-07T02:07:08.330Z,18.81
2018-11-07T02:08:08.025Z,18.81
2018-11-07T02:09:08.524Z,18.8
2018-11-07T02:10:08.724Z,18.81
2018-11-07T02:11:08.734Z,18.84
2018-11-07T02:12:08.265Z,18.84
2018-11-07T02:13:08.199Z,18.81
2018-11-07T02:14:08.315Z,18.81
2018-11-07T02:15:08.122Z,18.83
2018-11-07T02:16:08.447Z,18.81
2018-11-07T02:17:08.284Z,18.8
2018-11-07T02:18:08.976Z,18.84
2018-11-07T02:19:08.271Z,18.81
2018-11-07T02:20:08.439Z,18.8
2018-11-07T02:21:08.520Z,18.81
2018-11-07T02:22:08.149Z,18.83
2018-11-07T02:23:08.542Z,18.83
2018-11-07T02:24:08.233Z,18.81
2018-11-07T02:25:08.205Z,18.8
2018-11-07T02:26:08.875Z,18.83
2018-11-07T02:27:08.489Z,18.8
2018-11-07T02:28:08.181Z,18.8
2018-11-07T02:29:08.016Z,18.83
2018-11-07T02:30:08.179Z,18.83
2018-11-07T02:31:08.265Z,18.83
2018-11-07T02:32:08.195Z,18.81
2018-11-07T02:33:08.508Z,18.81
2018-11-07T02:34:08.150Z,18.81
2018-11-07T02:35:08.496Z,18.83
2018-11-07T02:36:08.191Z,18.81
2018-11-07T02:37:09.473Z,18.81
2018-11-07T02:38:08.324Z,18.81
2018-11-07T02:39:08.179Z,18.81
2018-11-07T02:40:08.312Z,18.81
2018-11-07T02:41:08.050Z,18.78
2018-11-07T02:42:08.180Z,18.78
2018-11-07T02:43:08.099Z,18.8
2018-11-07T02:44:08.190Z,18.8
2018-11-07T02:45:08.239Z,18.81
2018-11-07T02:46:08.542Z,18.81
2018-11-07T02:47:08.262Z,18.8
2018-11-07T02:48:08.165Z,18.8
2018-11-07T02:49:08.170Z,18.78
2018-11-07T02:50:08.834Z,18.81
2018-11-07T02:51:08.177Z,18.8
2018-11-07T02:52:08.369Z,18.78
2018-11-07T02:53:08.124Z,18.78
2018-11-07T02:54:08.362Z,18.81
2018-11-07T02:55:08.139Z,18.81
2018-11-07T02:56:08.338Z,18.8
2018-11-07T02:57:07.995Z,18.8
2018-11-07T02:58:08.169Z,18.78
2018-11-07T02:59:08.260Z,18.77
2018-11-07T03:00:08.104Z,18.77
2018-11-07T03:01:09.237Z,18.78
2018-11-07T03:02:08.080Z,18.78
2018-11-07T03:03:08.752Z,18.8
2018-11-07T03:04:08.078Z,18.78
2018-11-07T03:05:08.255Z,18.77
2018-11-07T03:06:08.288Z,18.78
2018-11-07T03:07:08.604Z,18.77
2018-11-07T03:08:08.236Z,18.77
2018-11-07T03:09:08.335Z,18.74
2018-11-07T03:10:09.503Z,18.74
2018-11-07T03:11:08.116Z,18.74
2018-11-07T03:12:08.181Z,18.75
2018-11-07T03:13:08.191Z,18.77
2018-11-07T03:14:08.122Z,18.77
2018-11-07T03:15:08.570Z,18.75
2018-11-07T03:16:08.113Z,18.74
2018-11-07T03:17:08.153Z,18.74
2018-11-07T03:18:08.569Z,18.77
2018-11-07T03:19:08.122Z,18.78
2018-11-07T03:20:08.337Z,18.73
2018-11-07T03:21:08.179Z,18.77
2018-11-07T03:22:08.183Z,18.71
2018-11-07T03:23:08.135Z,18.73
2018-11-07T03:24:08.105Z,18.74
2018-11-07T03:25:08.231Z,18.75
2018-11-07T03:26:08.114Z,18.77
2018-11-07T03:27:08.230Z,18.77
2018-11-07T03:28:08.023Z,18.75
2018-11-07T03:29:08.482Z,18.74
2018-11-07T03:30:08.387Z,18.74
2018-11-07T03:31:08.176Z,18.77
2018-11-07T03:32:08.314Z,18.74
2018-11-07T03:33:08.074Z,18.74
2018-11-07T03:34:08.377Z,18.73
2018-11-07T03:35:08.408Z,18.73
2018-11-07T03:36:08.186Z,18.75
2018-11-07T03:37:08.041Z,18.75
2018-11-07T03:38:08.219Z,18.75
2018-11-07T03:39:08.414Z,18.74
2018-11-07T03:40:08.069Z,18.75
2018-11-07T03:41:08.332Z,18.74
2018-11-07T03:42:08.064Z,18.77
2018-11-07T03:43:08.459Z,18.75
2018-11-07T03:44:08.123Z,18.75
2018-11-07T03:45:08.129Z,18.74
2018-11-07T03:46:08.136Z,18.73
2018-11-07T03:47:08.382Z,18.75
2018-11-07T03:48:08.317Z,18.73
2018-11-07T03:49:08.167Z,18.73
2018-11-07T03:50:08.382Z,18.75
2018-11-07T03:51:08.158Z,18.73
2018-11-07T03:52:08.283Z,18.74
2018-11-07T03:53:09.175Z,18.73
2018-11-07T03:54:08.211Z,18.73
2018-11-07T03:55:08.193Z,18.74
2018-11-07T03:56:08.184Z,18.77
2018-11-07T03:57:08.245Z,18.74
2018-11-07T03:58:08.513Z,18.73
2018-11-07T03:59:08.130Z,18.75
2018-11-07T04:00:08.108Z,18.74
2018-11-07T04:01:08.206Z,18.75
2018-11-07T04:02:08.500Z,18.75
2018-11-07T04:03:08.134Z,18.77
2018-11-07T04:04:08.411Z,18.73
2018-11-07T04:05:08.075Z,18.73
2018-11-07T04:06:08.263Z,18.75
2018-11-07T04:07:07.958Z,18.73
2018-11-07T04:08:08.273Z,18.71
2018-11-07T04:09:08.204Z,18.71
2018-11-07T04:10:08.063Z,18.71
2018-11-07T04:11:08.227Z,18.71
2018-11-07T04:12:08.158Z,18.73
2018-11-07T04:13:08.286Z,18.7
2018-11-07T04:14:08.098Z,18.73
2018-11-07T04:15:08.105Z,18.73
2018-11-07T04:16:08.249Z,18.71
2018-11-07T04:17:08.046Z,18.71
2018-11-07T04:18:08.636Z,18.73
2018-11-07T04:19:08.111Z,18.71
2018-11-07T04:20:08.169Z,18.73
2018-11-07T04:21:07.977Z,18.74
2018-11-07T04:22:08.169Z,18.7
2018-11-07T04:23:08.197Z,18.73
2018-11-07T04:24:08.108Z,18.74
2018-11-07T04:25:08.165Z,18.74
2018-11-07T04:26:08.073Z,18.74
2018-11-07T04:27:08.194Z,18.73
2018-11-07T04:28:07.963Z,18.75
2018-11-07T04:29:08.149Z,18.71
2018-11-07T04:30:08.223Z,18.73
2018-11-07T04:31:08.152Z,18.68
2018-11-07T04:32:08.215Z,18.68
2018-11-07T04:33:08.192Z,18.7
2018-11-07T04:34:08.187Z,18.7
2018-11-07T04:35:08.025Z,18.68
2018-11-07T04:36:08.608Z,18.7
2018-11-07T04:37:09.335Z,18.71
2018-11-07T04:38:08.259Z,18.71
2018-11-07T04:39:09.643Z,18.71
2018-11-07T04:40:08.098Z,18.67
2018-11-07T04:41:08.156Z,18.7
2018-11-07T04:42:08.478Z,18.7
2018-11-07T04:43:08.189Z,18.7
2018-11-07T04:44:08.259Z,18.7
2018-11-07T04:45:08.134Z,18.7
2018-11-07T04:46:07.977Z,18.68
2018-11-07T04:47:08.314Z,18.71
2018-11-07T04:48:09.387Z,18.7
2018-11-07T04:49:08.235Z,18.71
2018-11-07T04:50:07.940Z,18.7
2018-11-07T04:51:08.140Z,18.71
2018-11-07T04:52:08.301Z,18.67
2018-11-07T04:53:08.062Z,18.7
2018-11-07T04:54:08.375Z,18.71
2018-11-07T04:55:08.159Z,18.71
2018-11-07T04:56:08.080Z,18.71
2018-11-07T04:57:08.538Z,18.7
2018-11-07T04:58:08.298Z,18.71
2018-11-07T04:59:08.128Z,18.68
2018-11-07T05:00:09.130Z,18.68
2018-11-07T05:01:08.244Z,18.68
2018-11-07T05:02:08.187Z,18.71
2018-11-07T05:03:08.418Z,18.67
2018-11-07T05:04:08.434Z,18.67
2018-11-07T05:05:08.388Z,18.66
2018-11-07T05:06:08.095Z,18.67
2018-11-07T05:07:08.255Z,18.68
2018-11-07T05:08:08.157Z,18.67
2018-11-07T05:09:08.616Z,18.66
2018-11-07T05:10:08.041Z,18.68
2018-11-07T05:11:08.199Z,18.7
2018-11-07T05:12:08.389Z,18.64
2018-11-07T05:13:08.105Z,18.62
2018-11-07T05:14:08.166Z,18.64
2018-11-07T05:15:08.286Z,18.62
2018-11-07T05:16:07.968Z,18.63
2018-11-07T05:17:08.179Z,18.62
2018-11-07T05:18:08.315Z,18.62
2018-11-07T05:19:08.063Z,18.63
2018-11-07T05:20:08.175Z,18.62
2018-11-07T05:21:08.006Z,18.63
2018-11-07T05:22:08.290Z,18.67
2018-11-07T05:23:08.770Z,18.68
2018-11-07T05:24:08.090Z,18.68
2018-11-07T05:25:08.460Z,18.7
2018-11-07T05:26:08.712Z,18.68
2018-11-07T05:27:08.286Z,18.71
2018-11-07T05:28:07.974Z,18.7
2018-11-07T05:29:08.015Z,18.67
2018-11-07T05:30:08.046Z,18.7
2018-11-07T05:31:08.316Z,18.68
2018-11-07T05:32:09.507Z,18.7
2018-11-07T05:33:08.239Z,18.7
2018-11-07T05:34:08.120Z,18.7
2018-11-07T05:35:07.952Z,18.71
2018-11-07T05:36:08.170Z,18.7
2018-11-07T05:37:08.199Z,18.7
2018-11-07T05:38:08.487Z,18.71
2018-11-07T05:39:08.219Z,18.74
2018-11-07T05:40:08.051Z,18.68
2018-11-07T05:41:09.248Z,18.71
2018-11-07T05:42:08.049Z,18.71
2018-11-07T05:43:08.023Z,18.7
2018-11-07T05:44:08.222Z,18.7
2018-11-07T05:45:08.003Z,18.73
2018-11-07T05:46:08.165Z,18.67
2018-11-07T05:47:08.264Z,18.67
2018-11-07T05:48:08.138Z,18.7
2018-11-07T05:49:09.032Z,18.68
2018-11-07T05:50:08.444Z,18.68
2018-11-07T05:51:08.107Z,18.73
2018-11-07T05:52:07.966Z,18.75
2018-11-07T05:53:08.121Z,18.73
2018-11-07T05:54:07.959Z,18.74
2018-11-07T05:55:08.224Z,18.73
2018-11-07T05:56:08.164Z,18.74
2018-11-07T05:57:08.022Z,18.73
2018-11-07T05:58:08.135Z,18.71
2018-11-07T05:59:08.060Z,18.75
2018-11-07T06:00:08.215Z,18.74
2018-11-07T06:01:08.168Z,18.75
2018-11-07T06:02:08.020Z,18.75
2018-11-07T06:03:08.245Z,18.75
2018-11-07T06:04:08.382Z,18.75
2018-11-07T06:05:08.164Z,18.74
2018-11-07T06:06:08.025Z,18.74
2018-11-07T06:07:08.462Z,18.73
2018-11-07T06:08:08.138Z,18.74
2018-11-07T06:09:08.414Z,18.73
2018-11-07T06:10:08.423Z,18.77
2018-11-07T06:11:08.029Z,18.74
2018-11-07T06:12:08.401Z,18.74
2018-11-07T06:13:07.894Z,18.71
2018-11-07T06:14:08.174Z,18.73
2018-11-07T06:15:08.109Z,18.75
2018-11-07T06:16:09.213Z,18.74
2018-11-07T06:17:08.219Z,18.74
2018-11-07T06:18:08.105Z,18.73
2018-11-07T06:19:08.130Z,18.74
2018-11-07T06:20:08.133Z,18.75
2018-11-07T06:21:08.129Z,18.75
2018-11-07T06:22:08.081Z,18.74
2018-11-07T06:23:08.010Z,18.77
2018-11-07T06:24:08.724Z,18.74
2018-11-07T06:25:08.297Z,18.74
2018-11-07T06:26:08.079Z,18.78
2018-11-07T06:27:07.964Z,18.77
2018-11-07T06:28:08.439Z,18.78
2018-11-07T06:29:08.312Z,18.75
2018-11-07T06:30:08.350Z,18.75
2018-11-07T06:31:08.173Z,18.75
2018-11-07T06:32:08.451Z,18.75
2018-11-07T06:33:08.312Z,18.74
2018-11-07T06:34:09.502Z,18.75
2018-11-07T06:35:08.113Z,18.77
2018-11-07T06:36:08.052Z,18.74
2018-11-07T06:37:08.051Z,18.74
2018-11-07T06:38:08.689Z,18.74
2018-11-07T06:39:07.971Z,18.74
2018-11-07T06:40:08.234Z,18.74
2018-11-07T06:41:07.968Z,18.77
2018-11-07T06:42:08.415Z,18.77
2018-11-07T06:43:08.003Z,18.77
2018-11-07T06:44:08.138Z,18.74
2018-11-07T06:45:08.353Z,18.71
2018-11-07T06:46:08.236Z,18.7
2018-11-07T06:47:08.141Z,18.7
2018-11-07T06:48:07.972Z,18.71
2018-11-07T06:49:08.434Z,18.73
2018-11-07T06:50:08.392Z,18.73
2018-11-07T06:51:08.024Z,18.74
2018-11-07T06:52:08.193Z,18.77
2018-11-07T06:53:07.998Z,18.77
2018-11-07T06:54:08.224Z,18.77
2018-11-07T06:55:08.614Z,18.77
2018-11-07T06:56:08.144Z,18.74
2018-11-07T06:57:08.131Z,18.74
2018-11-07T06:58:08.189Z,18.75
2018-11-07T06:59:08.154Z,18.74
2018-11-07T07:00:07.988Z,18.74
2018-11-07T07:01:08.344Z,18.73
2018-11-07T07:02:07.916Z,18.73
2018-11-07T07:03:08.070Z,18.74
2018-11-07T07:04:08.350Z,18.73
2018-11-07T07:05:08.547Z,18.75
2018-11-07T07:06:08.484Z,18.75
2018-11-07T07:07:08.050Z,18.74
2018-11-07T07:08:08.391Z,18.75
2018-11-07T07:09:08.054Z,18.74
2018-11-07T07:10:08.196Z,18.74
2018-11-07T07:11:07.974Z,18.74
2018-11-07T07:12:08.087Z,18.73
2018-11-07T07:13:08.226Z,18.73
2018-11-07T07:14:08.046Z,18.71
2018-11-07T07:15:08.882Z,18.74
2018-11-07T07:16:08.029Z,18.78
2018-11-07T07:17:08.123Z,18.75
2018-11-07T07:18:09.428Z,18.75
2018-11-07T07:19:08.042Z,18.71
2018-11-07T07:20:08.052Z,18.74
2018-11-07T07:21:08.048Z,18.74
2018-11-07T07:22:08.134Z,18.71
2018-11-07T07:23:07.957Z,18.74
2018-11-07T07:24:08.115Z,18.75
2018-11-07T07:25:08.055Z,18.74
2018-11-07T07:26:07.932Z,18.73
2018-11-07T07:27:08.169Z,18.71
2018-11-07T07:28:08.012Z,18.73
2018-11-07T07:29:08.102Z,18.74
2018-11-07T07:30:08.195Z,18.71
2018-11-07T07:31:08.164Z,18.73
2018-11-07T07:32:07.945Z,18.71
2018-11-07T07:33:09.015Z,18.71
2018-11-07T07:34:08.168Z,18.68
2018-11-07T07:35:08.070Z,18.71
2018-11-07T07:36:08.099Z,18.73
2018-11-07T07:37:07.940Z,18.73
2018-11-07T07:38:08.321Z,18.73
2018-11-07T07:39:08.327Z,18.68
2018-11-07T07:40:08.161Z,18.64
2018-11-07T07:41:07.886Z,18.57
2018-11-07T07:42:08.141Z,18.6
2018-11-07T07:43:08.475Z,18.57
2018-11-07T07:44:08.427Z,18.49
2018-11-07T07:45:08.204Z,18.4
2018-11-07T07:46:08.306Z,18.32
2018-11-07T07:47:08.043Z,18.09
2018-11-07T07:48:08.191Z,17.95
2018-11-07T07:49:08.897Z,17.97
2018-11-07T07:50:08.497Z,18
2018-11-07T07:51:07.993Z,18.07
2018-11-07T07:52:08.446Z,18.07
2018-11-07T07:53:09.328Z,18.08
2018-11-07T07:54:08.216Z,18.08
2018-11-07T07:55:08.216Z,18.08
2018-11-07T07:56:08.122Z,18.05
2018-11-07T07:57:08.092Z,18.05
2018-11-07T07:58:07.935Z,18.02
2018-11-07T07:59:08.154Z,18.01
2018-11-07T08:00:07.923Z,17.98
2018-11-07T08:01:08.024Z,17.97
2018-11-07T08:02:08.492Z,17.94
2018-11-07T08:03:08.051Z,17.94
2018-11-07T08:04:08.264Z,17.98
2018-11-07T08:05:07.959Z,17.95
2018-11-07T08:06:08.069Z,17.94
2018-11-07T08:07:09.540Z,17.97
2018-11-07T08:08:08.269Z,17.95
2018-11-07T08:09:08.444Z,17.97
2018-11-07T08:10:07.996Z,17.95
2018-11-07T08:11:08.104Z,17.95
2018-11-07T08:12:08.292Z,17.95
2018-11-07T08:13:08.077Z,17.94
2018-11-07T08:14:09.629Z,17.71
2018-11-07T08:15:07.951Z,17.73
2018-11-07T08:16:08.265Z,17.78
2018-11-07T08:17:08.409Z,17.84
2018-11-07T08:18:08.508Z,17.88
2018-11-07T08:19:08.137Z,17.89
2018-11-07T08:20:08.196Z,17.74
2018-11-07T08:21:08.593Z,17.57
2018-11-07T08:22:08.317Z,17.57
2018-11-07T08:23:08.172Z,17.45
2018-11-07T08:24:08.031Z,17.45
2018-11-07T08:25:08.091Z,17.46
2018-11-07T08:26:08.261Z,17.53
2018-11-07T08:27:08.126Z,17.57
2018-11-07T08:28:08.252Z,17.64
2018-11-07T08:29:09.159Z,17.66
2018-11-07T08:30:08.463Z,17.53
2018-11-07T08:31:08.016Z,17.43
2018-11-07T08:32:08.067Z,17.31
2018-11-07T08:33:08.108Z,17.22
2018-11-07T08:34:08.031Z,17.16
2018-11-07T08:35:07.994Z,17.09
2018-11-07T08:36:08.232Z,17.15
2018-11-07T08:37:08.467Z,17.05
2018-11-07T08:38:08.209Z,17.01
2018-11-07T08:39:08.365Z,17.05
2018-11-07T08:40:08.041Z,17.04
2018-11-07T08:41:08.104Z,17.05
2018-11-07T08:42:08.556Z,17.04
2018-11-07T08:43:08.128Z,17.02
2018-11-07T08:44:08.603Z,16.92
2018-11-07T08:45:07.955Z,16.95
2018-11-07T08:46:08.234Z,16.98
2018-11-07T08:47:08.028Z,16.87
2018-11-07T08:48:09.285Z,16.86
2018-11-07T08:49:07.989Z,16.88
2018-11-07T08:50:08.025Z,16.87
2018-11-07T08:51:08.268Z,16.87
2018-11-07T08:52:08.100Z,16.91
2018-11-07T08:53:08.115Z,16.9
2018-11-07T08:54:08.141Z,16.88
2018-11-07T08:55:09.577Z,16.88
2018-11-07T08:56:07.969Z,16.9
2018-11-07T08:57:07.964Z,16.86
2018-11-07T08:58:08.099Z,16.9
2018-11-07T08:59:07.958Z,16.87
2018-11-07T09:00:08.084Z,16.84
2018-11-07T09:01:08.253Z,16.84
2018-11-07T09:02:08.859Z,16.86
2018-11-07T09:03:09.165Z,16.88
2018-11-07T09:04:07.993Z,16.81
2018-11-07T09:05:07.882Z,16.83
2018-11-07T09:06:08.015Z,16.83
2018-11-07T09:07:08.123Z,16.84
2018-11-07T09:08:07.910Z,16.84
2018-11-07T09:09:08.071Z,16.86
2018-11-07T09:10:07.971Z,16.9
2018-11-07T09:11:07.997Z,16.91
2018-11-07T09:12:09.187Z,16.88
2018-11-07T09:13:08.068Z,16.84
2018-11-07T09:14:08.102Z,16.86
2018-11-07T09:15:08.583Z,16.8
2018-11-07T09:16:08.096Z,16.76
2018-11-07T09:17:07.970Z,16.81
2018-11-07T09:18:07.981Z,16.78
2018-11-07T09:19:08.018Z,16.84
2018-11-07T09:20:08.796Z,16.86
2018-11-07T09:21:08.027Z,16.86
2018-11-07T09:22:08.451Z,16.83
2018-11-07T09:23:08.231Z,16.86
2018-11-07T09:24:08.155Z,16.83
2018-11-07T09:25:08.130Z,16.81
2018-11-07T09:26:07.849Z,16.78
2018-11-07T09:27:07.995Z,16.78
2018-11-07T09:28:08.362Z,16.77
2018-11-07T09:29:09.044Z,16.76
2018-11-07T09:30:08.110Z,16.76
2018-11-07T09:31:07.886Z,16.78
2018-11-07T09:32:07.991Z,16.8
2018-11-07T09:33:08.100Z,16.84
2018-11-07T09:34:07.981Z,16.86
2018-11-07T09:35:08.078Z,16.84
2018-11-07T09:36:07.899Z,16.81
2018-11-07T09:37:08.359Z,16.87
2018-11-07T09:38:08.052Z,16.81
2018-11-07T09:39:08.263Z,16.87
2018-11-07T09:40:07.867Z,16.86
2018-11-07T09:41:08.288Z,16.81
2018-11-07T09:42:08.293Z,16.83
2018-11-07T09:43:08.054Z,16.84
2018-11-07T09:44:08.273Z,16.84
2018-11-07T09:45:08.170Z,16.88
2018-11-07T09:46:08.410Z,16.86
2018-11-07T09:47:07.862Z,16.91
2018-11-07T09:48:08.966Z,16.9
2018-11-07T09:49:07.865Z,16.91
2018-11-07T09:50:08.247Z,16.87
2018-11-07T09:51:08.296Z,16.88
2018-11-07T09:52:07.889Z,16.94
2018-11-07T09:53:08.167Z,16.94
2018-11-07T09:54:08.750Z,16.95
2018-11-07T09:55:08.423Z,16.92
2018-11-07T09:56:09.225Z,16.98
2018-11-07T09:57:08.071Z,17.05
2018-11-07T09:58:08.337Z,17.01
2018-11-07T09:59:07.919Z,17.02
2018-11-07T10:00:08.011Z,17.05
2018-11-07T10:01:07.913Z,17.08
2018-11-07T10:02:08.349Z,17.09
2018-11-07T10:03:07.846Z,17.12
2018-11-07T10:04:07.982Z,17.18
2018-11-07T10:05:08.163Z,17.23
2018-11-07T10:06:08.026Z,17.22
2018-11-07T10:07:08.006Z,17.26
2018-11-07T10:08:08.168Z,17.26
2018-11-07T10:09:08.814Z,17.32
2018-11-07T10:10:08.690Z,17.32
2018-11-07T10:11:08.032Z,17.38
2018-11-07T10:12:08.043Z,17.39
2018-11-07T10:13:08.211Z,17.42
2018-11-07T10:14:08.120Z,17.43
2018-11-07T10:15:08.193Z,17.43
2018-11-07T10:16:08.693Z,17.43
2018-11-07T10:17:07.901Z,17.4
2018-11-07T10:18:08.406Z,17.42
2018-11-07T10:19:07.807Z,17.46
2018-11-07T10:20:08.358Z,17.45
2018-11-07T10:21:08.585Z,17.48
2018-11-07T10:22:07.975Z,17.46
2018-11-07T10:23:07.998Z,17.48
2018-11-07T10:24:07.878Z,17.48
2018-11-07T10:25:08.061Z,17.48
2018-11-07T10:26:07.827Z,17.49
2018-11-07T10:27:10.257Z,17.5
2018-11-07T10:28:12.314Z,17.5
2018-11-07T10:29:11.344Z,17.52
2018-11-07T10:30:11.778Z,17.5
2018-11-07T10:31:08.130Z,17.52
2018-11-07T10:32:07.956Z,17.54
2018-11-07T10:33:07.974Z,17.56
2018-11-07T10:34:07.878Z,17.54
2018-11-07T10:35:08.078Z,17.56
2018-11-07T10:36:07.806Z,17.52
2018-11-07T10:37:07.987Z,17.54
2018-11-07T10:38:10.164Z,17.56
2018-11-07T10:39:07.890Z,17.52
2018-11-07T10:40:08.637Z,17.52
2018-11-07T10:41:08.143Z,17.5
2018-11-07T10:42:08.192Z,17.5
2018-11-07T10:43:08.209Z,17.49
2018-11-07T10:44:08.842Z,17.53
2018-11-07T10:45:08.238Z,17.52
2018-11-07T10:46:09.264Z,17.54
2018-11-07T10:47:08.867Z,17.59
2018-11-07T10:48:08.105Z,17.61
2018-11-07T10:49:07.886Z,17.6
2018-11-07T10:50:08.258Z,17.64
2018-11-07T10:51:08.036Z,17.63
2018-11-07T10:52:08.123Z,17.66
2018-11-07T10:53:07.988Z,17.64
2018-11-07T10:54:08.032Z,17.64
2018-11-07T10:55:09.188Z,17.67
2018-11-07T10:56:07.993Z,17.59
2018-11-07T10:57:08.283Z,17.53
2018-11-07T10:58:08.348Z,17.52
2018-11-07T10:59:07.968Z,17.5
2018-11-07T11:00:07.970Z,17.5
2018-11-07T11:01:08.209Z,17.56
2018-11-07T11:02:08.341Z,17.56
2018-11-07T11:03:07.902Z,17.52
2018-11-07T11:04:08.251Z,17.49
2018-11-07T11:05:09.217Z,17.52
2018-11-07T11:06:08.020Z,17.52
2018-11-07T11:07:07.813Z,17.5
2018-11-07T11:08:08.180Z,17.49
2018-11-07T11:09:08.001Z,17.53
2018-11-07T11:10:07.891Z,17.52
2018-11-07T11:11:08.706Z,17.53
2018-11-07T11:12:08.086Z,17.59
2018-11-07T11:13:08.224Z,17.6
2018-11-07T11:14:08.178Z,17.66
2018-11-07T11:15:08.158Z,17.64
2018-11-07T11:16:08.245Z,17.68
2018-11-07T11:17:08.262Z,17.71
2018-11-07T11:18:08.000Z,17.74
2018-11-07T11:19:07.881Z,17.73
2018-11-07T11:20:08.001Z,17.73
2018-11-07T11:21:08.080Z,17.74
2018-11-07T11:22:07.981Z,17.76
2018-11-07T11:23:08.077Z,17.74
2018-11-07T11:24:07.819Z,17.76
2018-11-07T11:25:07.918Z,17.8
2018-11-07T11:26:09.164Z,17.8
2018-11-07T11:27:08.433Z,17.82
2018-11-07T11:28:07.938Z,17.8
2018-11-07T11:29:07.974Z,17.82
2018-11-07T11:30:08.269Z,17.81
2018-11-07T11:31:07.820Z,17.85
2018-11-07T11:32:08.255Z,17.85
2018-11-07T11:33:07.903Z,17.82
2018-11-07T11:34:10.050Z,17.87
2018-11-07T11:35:10.769Z,17.87
2018-11-07T11:36:07.859Z,17.89
2018-11-07T11:37:08.287Z,17.89
2018-11-07T11:38:08.074Z,17.89
2018-11-07T11:39:07.913Z,17.89
2018-11-07T11:40:07.995Z,17.93
2018-11-07T11:41:09.545Z,17.93
2018-11-07T11:42:08.339Z,17.97
2018-11-07T11:43:07.870Z,17.95
2018-11-07T11:44:07.947Z,17.94
2018-11-07T11:45:08.964Z,17.95
2018-11-07T11:46:07.891Z,17.95
2018-11-07T11:47:08.064Z,17.97
2018-11-07T11:48:08.173Z,17.97
2018-11-07T11:49:09.048Z,17.98
2018-11-07T11:50:07.930Z,18
2018-11-07T11:51:08.485Z,18
2018-11-07T11:52:08.412Z,18
2018-11-07T11:53:07.886Z,18.01
2018-11-07T11:54:07.936Z,18.02
2018-11-07T11:55:07.913Z,18.02
2018-11-07T11:56:07.991Z,18.04
2018-11-07T11:57:09.211Z,18.04
2018-11-07T11:58:07.906Z,18.05
2018-11-07T11:59:09.397Z,18.05
2018-11-07T12:00:12.627Z,18.05
2018-11-07T12:01:07.954Z,18.04
2018-11-07T12:02:08.607Z,18.05
2018-11-07T12:03:07.919Z,18.07
2018-11-07T12:04:08.179Z,18.07
2018-11-07T12:05:07.915Z,18.07
2018-11-07T12:06:08.220Z,18.07
2018-11-07T12:07:07.860Z,18.08
2018-11-07T12:08:08.507Z,18.05
2018-11-07T12:09:08.160Z,18.08
2018-11-07T12:10:07.954Z,18.07
2018-11-07T12:11:08.014Z,18.05
2018-11-07T12:12:09.710Z,18.07
2018-11-07T12:13:09.195Z,18.09
2018-11-07T12:14:08.037Z,18.07
2018-11-07T12:15:08.556Z,18.08
2018-11-07T12:16:08.359Z,18.08
2018-11-07T12:17:07.968Z,18.08
2018-11-07T12:18:07.972Z,18.07
2018-11-07T12:19:07.833Z,18.09
2018-11-07T12:20:08.029Z,18.08
2018-11-07T12:21:09.020Z,18.08
2018-11-07T12:22:07.845Z,18.11
2018-11-07T12:23:08.437Z,18.09
2018-11-07T12:24:07.975Z,18.09
2018-11-07T12:25:08.133Z,18.11
2018-11-07T12:26:08.064Z,18.11
2018-11-07T12:27:07.979Z,18.11
2018-11-07T12:28:08.096Z,18.12
2018-11-07T12:29:07.857Z,18.09
2018-11-07T12:30:08.369Z,18.11
2018-11-07T12:31:07.888Z,18.09
2018-11-07T12:32:08.017Z,18.11
2018-11-07T12:33:08.025Z,18.13
2018-11-07T12:34:07.899Z,18.13
2018-11-07T12:35:07.984Z,18.13
2018-11-07T12:36:08.473Z,18.15
2018-11-07T12:37:08.046Z,18.12
2018-11-07T12:38:08.290Z,18.13
2018-11-07T12:39:08.088Z,18.12
2018-11-07T12:40:08.012Z,18.18
2018-11-07T12:41:07.958Z,18.15
2018-11-07T12:42:07.964Z,18.16
2018-11-07T12:43:07.972Z,18.16
2018-11-07T12:44:07.979Z,18.15
2018-11-07T12:45:08.267Z,18.16
2018-11-07T12:46:08.201Z,18.13
2018-11-07T12:47:08.168Z,18.15
2018-11-07T12:48:07.865Z,18.15
2018-11-07T12:49:07.914Z,18.15
2018-11-07T12:50:10.241Z,18.12
2018-11-07T12:51:08.003Z,18.15
2018-11-07T12:52:08.261Z,18.15
2018-11-07T12:53:07.802Z,18.12
2018-11-07T12:54:08.055Z,18.15
2018-11-07T12:55:07.813Z,18.16